Time;durP1;ratioP1;P1;durP2;ratioP2;P2;SDS_P1;SDS_P2;PMS_P1;PMS_P2;Temp;Humidity;BMP_temperature;BMP_pressure;BME280_temperature;BME280_humidity;BME280_pressure;Samples;Min_cycle;Max_cycle;Signal;HPM_P1;HPM_P2
2022/10/16 00:05:52;;;;;;;;;;;;;;;;;;12977381;22;20166;-74
2022/10/16 00:33:01;;;;;;;;;;;;;;;;;;12976911;22;19957;-74
2022/10/16 00:38:29;;;;;;;;;;;;;;;;;;;;;
2022/10/16 00:49:05;;;;;;;;;;;;;;;;;;12976793;22;20324;-71
2022/10/16 01:05:38;;;;;;;;;;;;;;;;;;12940530;22;19923;-74
2022/10/16 01:10:53;;;;;;;;;;;;;;;;;;;;;
2022/10/16 01:22:19;;;;;;;;;;;;;;;;;;12950353;22;19923;-74
2022/10/16 01:27:27;;;;;;;;;;;;;;;;;;12925547;22;19938;-74
2022/10/16 01:32:48;;;;;;;;;;;;;;;;;;12945617;22;19914;-73
2022/10/16 01:37:55;;;;;;;;;;;;;;;;;;12948457;22;20244;-74
2022/10/16 01:53:55;;;;;;;;;;;;;;;;;;;;;
2022/10/16 01:59:32;;;;;;;;;;;;;;;;;;12974209;22;19919;-73
2022/10/16 02:04:41;;;;;;;;;;;;;;;;;;12925122;22;19903;-71
2022/10/16 02:10:04;;;;;;;;;;;;;;;;;;12952837;22;19915;-74
2022/10/16 02:15:14;;;;;;;;;;;;;;;;;;12925112;22;19930;-74
2022/10/16 02:20:43;;;;;;;;;;;;;;;;;;12950847;22;20262;-73
2022/10/16 02:31:33;;;;;;;;;;;;;;;;;;12966065;22;20046;-73
2022/10/16 02:42:01;;;;;;;;;;;;;;;;;;12974823;22;19919;-74
2022/10/16 02:52:32;;;;;;;;;;;;;;;;;;12937366;22;19930;-72
2022/10/16 02:57:32;;;;;;;;;;;;;;;;;;12921254;22;20193;-72
2022/10/16 03:02:33;;;;;;;;;;;;;;;;;;12920812;22;20343;-73
2022/10/16 03:07:34;;;;;;;;;;;;;;;;;;12921648;22;20303;-73
2022/10/16 03:18:05;;;;;;;;;;;;;;;;;;12948117;22;19907;-72
2022/10/16 03:23:07;;;;;;;;;;;;;;;;;;12924439;22;19903;-71
2022/10/16 03:28:08;;;;;;;;;;;;;;;;;;12926725;22;20399;-72
2022/10/16 03:33:08;;;;;;;;;;;;;;;;;;12927238;22;19990;-74
2022/10/16 03:38:09;;;;;;;;;;;;;;;;;;12952317;22;19915;-72
2022/10/16 03:43:09;;;;;;;;;;;;;;;;;;12927369;22;20685;-72
2022/10/16 03:48:09;;;;;;;;;;;;;;;;;;12926634;22;20343;-73
2022/10/16 03:58:47;;;;;;;;;;;;;;;;;;12960338;22;19934;-73
2022/10/16 04:04:08;;;;;;;;;;;;;;;;;;12954767;22;19907;-74
2022/10/16 04:25:42;;;;;;;;;;;;;;;;;;12757147;23;19991;-72
2022/10/16 04:30:42;;;;;;;;;;;;;;;;;;12902303;22;19981;-73
2022/10/16 04:35:45;;;;;;;;;;;;;;;;;;12929055;22;19911;-73
2022/10/16 04:40:48;;;;;;;;;;;;;;;;;;12925977;22;20308;-73
2022/10/16 04:46:00;;;;;;;;;;;;;;;;;;;;;
2022/10/16 04:51:05;;;;;;;;;;;;;;;;;;12949762;22;20430;-73
2022/10/16 04:56:08;;;;;;;;;;;;;;;;;;12926225;22;19938;-73
2022/10/16 05:01:23;;;;;;;;;;;;;;;;;;12952276;22;20325;-73
2022/10/16 05:06:23;;;;;;;;;;;;;;;;;;12949466;22;19918;-73
2022/10/16 05:11:23;;;;;;;;;;;;;;;;;;12925085;22;20010;-73
2022/10/16 05:16:24;;;;;;;;;;;;;;;;;;12923582;22;19926;-73
2022/10/16 05:21:37;;;;;;;;;;;;;;;;;;12923614;22;19907;-73
2022/10/16 05:26:51;;;;;;;;;;;;;;;;;;12952463;22;19919;-73
2022/10/16 05:31:55;;;;;;;;;;;;;;;;;;12923651;22;20006;-74
2022/10/16 05:37:09;;;;;;;;;;;;;;;;;;12924321;22;20578;-75
2022/10/16 05:42:12;;;;;;;;;;;;;;;;;;12923690;22;20523;-74
2022/10/16 05:47:52;;;;;;;;;;;;;;;;;;;;;
2022/10/16 05:53:26;;;;;;;;;;;;;;;;;;;;;
2022/10/16 05:58:40;;;;;;;;;;;;;;;;;;12948720;22;20316;-73
2022/10/16 06:09:37;;;;;;;;;;;;;;;;;;12909885;23;19984;-73
2022/10/16 06:14:39;;;;;;;;;;;;;;;;;;12859054;23;19916;-74
2022/10/16 06:19:40;;;;;;;;;;;;;;;;;;12883608;23;20393;-74
2022/10/16 06:24:54;;;;;;;;;;;;;;;;;;12911240;23;20393;-72
2022/10/16 06:29:55;;;;;;;;;;;;;;;;;;12859784;23;20139;-74
2022/10/16 06:34:55;;;;;;;;;;;;;;;;;;12859584;22;20329;-74
2022/10/16 06:39:55;;;;;;;;;;;;;;;;;;12859561;23;20347;-73
2022/10/16 06:44:58;;;;;;;;;;;;;;;;;;12859351;23;20021;-72
2022/10/16 06:49:59;;;;;;;;;;;;;;;;;;12859422;23;19934;-72
2022/10/16 06:54:59;;;;;;;;;;;;;;;;;;12858289;23;19912;-72
2022/10/16 07:00:00;;;;;;;;;;;;;;;;;;12858923;22;19919;-74
2022/10/16 07:05:00;;;;;;;;;;;;;;;;;;12858579;22;20048;-72
2022/10/16 07:10:03;;;;;;;;;;;;;;;;;;12884148;23;19961;-74
2022/10/16 07:15:17;;;;;;;;;;;;;;;;;;12885294;23;20275;-73
2022/10/16 07:20:18;;;;;;;;;;;;;;;;;;12886305;23;19911;-73
2022/10/16 07:25:18;;;;;;;;;;;;;;;;;;12888976;23;20014;-74
2022/10/16 07:35:52;;;;;;;;;;;;;;;;;;12910843;23;19942;-73
2022/10/16 07:40:56;;;;;;;;;;;;;;;;;;12884287;22;19919;-74
2022/10/16 07:45:56;;;;;;;;;;;;;;;;;;12884704;23;19991;-73
2022/10/16 08:03:06;;;;;;;;;;;;;;;;;;;;;
2022/10/16 08:18:52;;;;;;;;;;;;;;;;;;12912985;22;19915;-73
2022/10/16 08:23:53;;;;;;;;;;;;;;;;;;12888354;22;19915;-72
2022/10/16 08:28:56;;;;;;;;;;;;;;;;;;12910449;22;19949;-73
2022/10/16 08:33:57;;;;;;;;;;;;;;;;;;12886619;23;19927;-72
2022/10/16 08:38:57;;;;;;;;;;;;;;;;;;12889294;23;19912;-70
2022/10/16 08:43:57;;;;;;;;;;;;;;;;;;12888080;23;19912;-71
2022/10/16 08:48:58;;;;;;;;;;;;;;;;;;12887908;23;19950;-72
2022/10/16 08:53:58;;;;;;;;;;;;;;;;;;12912881;23;19911;-73
2022/10/16 08:58:58;;;;;;;;;;;;;;;;;;12888406;23;20633;-73
2022/10/16 09:03:59;;;;;;;;;;;;;;;;;;12887787;23;19919;-72
2022/10/16 09:08:59;;;;;;;;;;;;;;;;;;12888647;23;19989;-72
2022/10/16 09:14:00;;;;;;;;;;;;;;;;;;12888078;22;19935;-75
2022/10/16 09:19:00;;;;;;;;;;;;;;;;;;12887330;23;19935;-72
2022/10/16 09:24:00;;;;;;;;;;;;;;;;;;12886740;23;20370;-74
2022/10/16 09:29:04;;;;;;;;;;;;;;;;;;12890004;23;19919;-74
2022/10/16 09:34:05;;;;;;;;;;;;;;;;;;12889255;23;19912;-74
2022/10/16 09:39:06;;;;;;;;;;;;;;;;;;12889489;23;19911;-74
2022/10/16 09:44:06;;;;;;;;;;;;;;;;;;12892012;23;19939;-74
2022/10/16 09:49:06;;;;;;;;;;;;;;;;;;12889508;23;20029;-72
2022/10/16 09:54:14;;;;;;;;;;;;;;;;;;12888788;23;19911;-74
2022/10/16 09:59:21;;;;;;;;;;;;;;;;;;12886187;23;19911;-73
2022/10/16 10:04:42;;;;;;;;;;;;;;;;;;12892094;23;19985;-76
2022/10/16 10:09:59;;;;;;;;;;;;;;;;;;12888337;22;19920;-76
2022/10/16 10:15:00;;;;;;;;;;;;;;;;;;12899330;23;20003;-75
2022/10/16 10:20:37;;;;;;;;;;;;;;;;;;12925416;23;19916;-75
2022/10/16 10:25:50;;;;;;;;;;;;;;;;;;12864655;23;20324;-74
2022/10/16 10:30:53;;;;;;;;;;;;;;;;;;12882491;23;19911;-74
2022/10/16 10:35:58;;;;;;;;;;;;;;;;;;12896910;22;19919;-73
2022/10/16 10:40:59;;;;;;;;;;;;;;;;;;13042046;22;19911;-74
2022/10/16 10:45:59;;;;;;;;;;;;;;;;;;12993124;22;19942;-74
2022/10/16 10:50:59;;;;;;;;;;;;;;;;;;12992110;22;19922;-74
2022/10/16 10:56:00;;;;;;;;;;;;;;;;;;13014749;22;19931;-73
2022/10/16 11:01:00;;;;;;;;;;;;;;;;;;13013770;22;19911;-74
2022/10/16 11:06:00;;;;;;;;;;;;;;;;;;13040330;22;20005;-75
2022/10/16 11:11:00;;;;;;;;;;;;;;;;;;13040592;22;19956;-73
2022/10/16 11:16:01;;;;;;;;;;;;;;;;;;13017454;22;20294;-73
2022/10/16 11:21:02;;;;;;;;;;;;;;;;;;13047104;22;19911;-78
2022/10/16 11:26:02;;;;;;;;;;;;;;;;;;13017375;22;20281;-78
2022/10/16 11:31:03;;;;;;;;;;;;;;;;;;13016521;22;20350;-77
2022/10/16 11:36:03;;;;;;;;;;;;;;;;;;12990632;22;20323;-77
2022/10/16 11:41:03;;;;;;;;;;;;;;;;;;13014548;22;20346;-75
2022/10/16 11:46:03;;;;;;;;;;;;;;;;;;13020684;22;19926;-75
2022/10/16 11:51:04;;;;;;;;;;;;;;;;;;13045595;22;19919;-75
2022/10/16 11:56:04;;;;;;;;;;;;;;;;;;13045199;22;19959;-80
2022/10/16 12:01:04;;;;;;;;;;;;;;;;;;13043318;22;19918;-75
2022/10/16 12:06:05;;;;;;;;;;;;;;;;;;13044112;22;19918;-75
2022/10/16 12:11:05;;;;;;;;;;;;;;;;;;13043372;22;19918;-75
2022/10/16 12:16:05;;;;;;;;;;;;;;;;;;13043187;22;19910;-73
2022/10/16 12:21:07;;;;;;;;;;;;;;;;;;13042549;22;20409;-74
2022/10/16 12:26:07;;;;;;;;;;;;;;;;;;13042985;22;19965;-74
2022/10/16 12:31:09;;;;;;;;;;;;;;;;;;13015804;22;19933;-74
2022/10/16 12:36:10;;;;;;;;;;;;;;;;;;13013458;22;19910;-75
2022/10/16 12:41:12;;;;;;;;;;;;;;;;;;13015076;22;20558;-74
2022/10/16 12:46:12;;;;;;;;;;;;;;;;;;13042042;22;19919;-75
2022/10/16 12:51:12;;;;;;;;;;;;;;;;;;13015751;22;20339;-75
2022/10/16 12:56:13;;;;;;;;;;;;;;;;;;13044629;22;19914;-75
2022/10/16 13:01:15;;;;;;;;;;;;;;;;;;13016175;22;20003;-77
2022/10/16 13:06:16;;;;;;;;;;;;;;;;;;13017215;22;19992;-75
2022/10/16 13:11:16;;;;;;;;;;;;;;;;;;13016168;22;19960;-74
2022/10/16 13:16:16;;;;;;;;;;;;;;;;;;13015573;22;19911;-76
2022/10/16 13:21:17;;;;;;;;;;;;;;;;;;12989525;22;19907;-75
2022/10/16 13:26:17;;;;;;;;;;;;;;;;;;13042021;22;19915;-74
2022/10/16 13:31:18;;;;;;;;;;;;;;;;;;13041941;22;19911;-75
2022/10/16 13:36:18;;;;;;;;;;;;;;;;;;13013829;22;19907;-75
2022/10/16 13:41:18;;;;;;;;;;;;;;;;;;13042095;22;19951;-74
2022/10/16 13:46:18;;;;;;;;;;;;;;;;;;13041982;22;19946;-73
2022/10/16 13:51:18;;;;;;;;;;;;;;;;;;13043620;22;19946;-75
2022/10/16 13:56:19;;;;;;;;;;;;;;;;;;13043754;22;20607;-74
2022/10/16 14:01:19;;;;;;;;;;;;;;;;;;13015186;22;19933;-75
2022/10/16 14:06:21;;;;;;;;;;;;;;;;;;13040844;22;20345;-76
2022/10/16 14:11:23;;;;;;;;;;;;;;;;;;13040876;22;19911;-75
2022/10/16 14:16:23;;;;;;;;;;;;;;;;;;12981688;22;19910;-75
2022/10/16 14:21:24;;;;;;;;;;;;;;;;;;13040176;22;20313;-73
2022/10/16 14:26:24;;;;;;;;;;;;;;;;;;13013740;22;19925;-74
2022/10/16 14:31:25;;;;;;;;;;;;;;;;;;13013727;22;19993;-76
2022/10/16 14:36:27;;;;;;;;;;;;;;;;;;13015124;22;19918;-75
2022/10/16 14:41:27;;;;;;;;;;;;;;;;;;12989183;22;19966;-74
2022/10/16 14:46:28;;;;;;;;;;;;;;;;;;13012734;22;19925;-75
2022/10/16 14:51:28;;;;;;;;;;;;;;;;;;13048564;22;19928;-75
2022/10/16 14:56:28;;;;;;;;;;;;;;;;;;13027715;22;19918;-74
2022/10/16 15:01:30;;;;;;;;;;;;;;;;;;13051182;22;19911;-74
2022/10/16 15:06:30;;;;;;;;;;;;;;;;;;13012433;22;20326;-74
2022/10/16 15:11:30;;;;;;;;;;;;;;;;;;13039497;22;19915;-77
2022/10/16 15:16:30;;;;;;;;;;;;;;;;;;13012123;22;19919;-73
2022/10/16 15:21:31;;;;;;;;;;;;;;;;;;13046282;22;20247;-76
2022/10/16 15:26:31;;;;;;;;;;;;;;;;;;13048369;22;20251;-75
2022/10/16 15:31:31;;;;;;;;;;;;;;;;;;13048663;22;19938;-75
2022/10/16 15:36:33;;;;;;;;;;;;;;;;;;13047635;22;19986;-75
2022/10/16 15:41:33;;;;;;;;;;;;;;;;;;13047853;22;19911;-75
2022/10/16 15:46:34;;;;;;;;;;;;;;;;;;13048704;22;19930;-74
2022/10/16 15:51:34;;;;;;;;;;;;;;;;;;13020496;22;19914;-74
2022/10/16 15:56:36;;;;;;;;;;;;;;;;;;13045659;22;19922;-75
2022/10/16 16:01:36;;;;;;;;;;;;;;;;;;13047264;22;19918;-75
2022/10/16 16:06:39;;;;;;;;;;;;;;;;;;13046205;22;19981;-74
2022/10/16 16:11:39;;;;;;;;;;;;;;;;;;13019553;22;19918;-76
2022/10/16 16:16:41;;;;;;;;;;;;;;;;;;13046039;22;20239;-75
2022/10/16 16:21:41;;;;;;;;;;;;;;;;;;13017838;22;19985;-74
2022/10/16 16:26:43;;;;;;;;;;;;;;;;;;13046247;22;19918;-75
2022/10/16 16:31:46;;;;;;;;;;;;;;;;;;13043524;22;19910;-74
2022/10/16 16:36:48;;;;;;;;;;;;;;;;;;13040177;22;19911;-75
2022/10/16 16:41:48;;;;;;;;;;;;;;;;;;13045000;22;19915;-75
2022/10/16 16:46:49;;;;;;;;;;;;;;;;;;13011477;22;19966;-75
2022/10/16 16:51:49;;;;;;;;;;;;;;;;;;13043408;22;19949;-76
2022/10/16 16:56:49;;;;;;;;;;;;;;;;;;13016296;22;19911;-74
2022/10/16 17:01:49;;;;;;;;;;;;;;;;;;13016517;22;19930;-75
2022/10/16 17:06:50;;;;;;;;;;;;;;;;;;13043743;22;19921;-75
2022/10/16 17:11:50;;;;;;;;;;;;;;;;;;13016884;22;19907;-75
2022/10/16 17:16:51;;;;;;;;;;;;;;;;;;13044108;22;19917;-77
2022/10/16 17:21:54;;;;;;;;;;;;;;;;;;13043911;22;19907;-73
2022/10/16 17:26:54;;;;;;;;;;;;;;;;;;13045917;22;19918;-76
2022/10/16 17:31:55;;;;;;;;;;;;;;;;;;13046550;22;19942;-75
2022/10/16 17:36:55;;;;;;;;;;;;;;;;;;13047759;22;19994;-73
2022/10/16 17:41:55;;;;;;;;;;;;;;;;;;13049347;22;20287;-76
2022/10/16 17:46:56;;;;;;;;;;;;;;;;;;13043369;22;19915;-76
2022/10/16 17:51:57;;;;;;;;;;;;;;;;;;13044365;22;19911;-76
2022/10/16 17:56:59;;;;;;;;;;;;;;;;;;13019137;22;19906;-75
2022/10/16 18:01:59;;;;;;;;;;;;;;;;;;13019576;22;19949;-76
2022/10/16 18:07:00;;;;;;;;;;;;;;;;;;13044978;22;20349;-76
2022/10/16 18:12:01;;;;;;;;;;;;;;;;;;13014210;22;19911;-75
2022/10/16 18:17:01;;;;;;;;;;;;;;;;;;13013600;22;19957;-75
2022/10/16 18:22:01;;;;;;;;;;;;;;;;;;13014639;22;19910;-75
2022/10/16 18:27:02;;;;;;;;;;;;;;;;;;13043512;22;19925;-76
2022/10/16 18:32:02;;;;;;;;;;;;;;;;;;13045017;22;19911;-78
2022/10/16 18:42:24;;;;;;;;;;;;;;;;;;13067627;22;19917;-76
2022/10/16 18:47:24;;;;;;;;;;;;;;;;;;12988394;22;19946;-79
2022/10/16 18:52:26;;;;;;;;;;;;;;;;;;12989786;22;19915;-78
2022/10/16 18:57:29;;;;;;;;;;;;;;;;;;12989223;22;20319;-77
2022/10/16 19:02:29;;;;;;;;;;;;;;;;;;13014851;22;19907;-77
2022/10/16 19:13:00;;;;;;;;;;;;;;;;;;13002016;22;19925;-77
2022/10/16 19:18:03;;;;;;;;;;;;;;;;;;12991251;22;19917;-77
2022/10/16 19:23:09;;;;;;;;;;;;;;;;;;13018668;22;19921;-76
2022/10/16 19:28:10;;;;;;;;;;;;;;;;;;13012870;22;20342;-76
2022/10/16 19:33:10;;;;;;;;;;;;;;;;;;12987516;22;19926;-75
2022/10/16 19:38:10;;;;;;;;;;;;;;;;;;13054280;22;20061;-78
2022/10/16 19:43:11;;;;;;;;;;;;;;;;;;13055177;22;20036;-77
2022/10/16 19:48:11;;;;;;;;;;;;;;;;;;13019064;22;19925;-76
2022/10/16 19:53:11;;;;;;;;;;;;;;;;;;12987776;22;19997;-77
2022/10/16 19:58:12;;;;;;;;;;;;;;;;;;13040943;22;19911;-77
2022/10/16 20:03:12;;;;;;;;;;;;;;;;;;13013263;22;19932;-77
2022/10/16 20:08:12;;;;;;;;;;;;;;;;;;13044961;22;20580;-78
2022/10/16 20:13:13;;;;;;;;;;;;;;;;;;13046552;22;20512;-77
2022/10/16 20:18:13;;;;;;;;;;;;;;;;;;13045773;22;19913;-76
2022/10/16 20:23:14;;;;;;;;;;;;;;;;;;13018668;22;19911;-78
2022/10/16 20:28:14;;;;;;;;;;;;;;;;;;13044171;22;20311;-75
2022/10/16 20:33:14;;;;;;;;;;;;;;;;;;13016001;22;20338;-77
2022/10/16 20:38:15;;;;;;;;;;;;;;;;;;13015467;22;19911;-74
2022/10/16 20:43:15;;;;;;;;;;;;;;;;;;13016084;22;20022;-76
2022/10/16 20:48:15;;;;;;;;;;;;;;;;;;13045426;22;20354;-76
2022/10/16 20:53:16;;;;;;;;;;;;;;;;;;13046831;22;19914;-77
2022/10/16 20:58:17;;;;;;;;;;;;;;;;;;13043355;22;20006;-75
2022/10/16 21:03:17;;;;;;;;;;;;;;;;;;13014826;22;19917;-75
2022/10/16 21:08:18;;;;;;;;;;;;;;;;;;13043369;22;19965;-75
2022/10/16 21:13:18;;;;;;;;;;;;;;;;;;12992115;22;19910;-76
2022/10/16 21:18:18;;;;;;;;;;;;;;;;;;13046328;22;19917;-74
2022/10/16 21:23:19;;;;;;;;;;;;;;;;;;13055660;22;19915;-75
2022/10/16 21:28:19;;;;;;;;;;;;;;;;;;13052555;22;19925;-75
2022/10/16 21:33:19;;;;;;;;;;;;;;;;;;13045008;22;20301;-74
2022/10/16 21:38:19;;;;;;;;;;;;;;;;;;13015370;22;19946;-74
2022/10/16 21:43:20;;;;;;;;;;;;;;;;;;13042979;22;19911;-76
2022/10/16 21:48:20;;;;;;;;;;;;;;;;;;13015089;22;19990;-75
2022/10/16 21:53:20;;;;;;;;;;;;;;;;;;13015450;22;19910;-75
2022/10/16 21:58:20;;;;;;;;;;;;;;;;;;13017667;22;19937;-76
2022/10/16 22:03:21;;;;;;;;;;;;;;;;;;13018010;22;19911;-75
2022/10/16 22:08:21;;;;;;;;;;;;;;;;;;13044292;22;19919;-75
2022/10/16 22:13:21;;;;;;;;;;;;;;;;;;12990112;22;20389;-76
2022/10/16 22:18:21;;;;;;;;;;;;;;;;;;12991244;22;19963;-74
2022/10/16 22:23:22;;;;;;;;;;;;;;;;;;13042325;22;19915;-74
2022/10/16 22:28:23;;;;;;;;;;;;;;;;;;13015204;22;19915;-74
2022/10/16 22:33:23;;;;;;;;;;;;;;;;;;13015444;22;19955;-74
2022/10/16 22:38:23;;;;;;;;;;;;;;;;;;13041573;22;19907;-73
2022/10/16 22:43:23;;;;;;;;;;;;;;;;;;13040426;22;19911;-76
2022/10/16 22:48:24;;;;;;;;;;;;;;;;;;13012461;22;19918;-75
2022/10/16 22:53:24;;;;;;;;;;;;;;;;;;13012792;22;19918;-75
2022/10/16 22:58:24;;;;;;;;;;;;;;;;;;13037296;22;19911;-74
2022/10/16 23:03:25;;;;;;;;;;;;;;;;;;13038317;22;19989;-74
2022/10/16 23:08:26;;;;;;;;;;;;;;;;;;13037941;22;19918;-75
2022/10/16 23:13:26;;;;;;;;;;;;;;;;;;13010957;22;19984;-75
2022/10/16 23:18:27;;;;;;;;;;;;;;;;;;13011406;22;19915;-75
2022/10/16 23:23:27;;;;;;;;;;;;;;;;;;13022148;22;19915;-76
2022/10/16 23:28:28;;;;;;;;;;;;;;;;;;13032692;22;19919;-75
2022/10/16 23:33:28;;;;;;;;;;;;;;;;;;12988780;22;19915;-75
2022/10/16 23:38:28;;;;;;;;;;;;;;;;;;12987904;22;20305;-74
2022/10/16 23:43:28;;;;;;;;;;;;;;;;;;13043807;22;19911;-76
2022/10/16 23:48:29;;;;;;;;;;;;;;;;;;13016668;22;19923;-76
2022/10/16 23:53:29;;;;;;;;;;;;;;;;;;13016067;22;19998;-75
2022/10/16 23:58:29;;;;;;;;;;;;;;;;;;13015554;22;19907;-75
